Time;durP1;ratioP1;P1;durP2;ratioP2;P2;SDS_P1;SDS_P2;PMS_P1;PMS_P2;Temp;Humidity;BMP_temperature;BMP_pressure;BME280_temperature;BME280_humidity;BME280_pressure;Samples;Min_cycle;Max_cycle;Signal;HPM_P1;HPM_P2
2022/10/20 00:01:09;;;;;;;9.80;9.00;;;13.50;99.90;;;;;;5085861;28;20853;-80
2022/10/20 00:03:38;;;;;;;11.00;9.90;;;13.50;1.00;;;;;;5084616;28;20482;-81
2022/10/20 00:06:08;;;;;;;11.33;9.80;;;13.40;99.90;;;;;;5087391;28;21079;-80
2022/10/20 00:08:36;;;;;;;10.90;10.00;;;13.40;99.90;;;;;;5085142;28;20452;-80
2022/10/20 00:11:05;;;;;;;11.07;10.07;;;13.40;99.90;;;;;;5083801;28;21301;-80
2022/10/20 00:13:33;;;;;;;10.87;9.97;;;13.50;90.90;;;;;;5083120;28;20501;-80
2022/10/20 00:16:01;;;;;;;12.20;11.00;;;13.50;99.90;;;;;;5083627;28;20570;-80
2022/10/20 00:18:31;;;;;;;13.37;11.97;;;13.50;1.00;;;;;;5085974;28;20548;-80
2022/10/20 00:20:59;;;;;;;12.33;11.07;;;13.50;99.90;;;;;;5083709;28;20475;-81
2022/10/20 00:23:27;;;;;;;10.77;9.87;;;13.60;99.90;;;;;;5086905;28;20463;-81
2022/10/20 00:26:06;;;;;;;12.57;11.03;;;13.50;1.00;;;;;;5081467;28;20552;-81
2022/10/20 00:28:35;;;;;;;11.13;10.00;;;13.50;99.90;;;;;;5080239;28;20548;-82
2022/10/20 00:31:03;;;;;;;12.27;11.03;;;13.40;99.90;;;;;;5083666;28;20545;-80
2022/10/20 00:33:32;;;;;;;11.87;9.70;;;13.40;1.00;;;;;;5082595;28;20452;-81
2022/10/20 00:36:00;;;;;;;12.70;11.50;;;13.40;1.00;;;;;;5073949;28;20454;-81
2022/10/20 00:38:29;;;;;;;12.10;11.00;;;13.50;99.90;;;;;;5078441;28;20548;-80
2022/10/20 00:40:58;;;;;;;11.50;10.37;;;13.40;99.90;;;;;;5076774;28;20476;-80
2022/10/20 00:43:41;;;;;;;10.27;9.47;;;13.30;99.90;;;;;;5084022;28;20455;-81
2022/10/20 00:46:12;;;;;;;11.47;10.40;;;13.20;99.90;;;;;;5087175;28;20546;-83
2022/10/20 00:48:43;;;;;;;11.97;10.70;;;13.20;99.90;;;;;;5080877;28;20456;-82
2022/10/20 00:51:15;;;;;;;11.97;10.80;;;13.20;99.90;;;;;;5083500;28;20491;-81
2022/10/20 00:53:44;;;;;;;13.90;12.50;;;13.20;99.90;;;;;;5076411;28;20467;-80
2022/10/20 00:56:12;;;;;;;9.90;9.00;;;13.30;99.90;;;;;;5084557;28;21109;-81
2022/10/20 00:58:40;;;;;;;11.80;10.30;;;13.30;1.00;;;;;;5076245;28;20924;-80
2022/10/20 01:01:09;;;;;;;13.23;11.93;;;13.20;99.90;;;;;;5080357;28;20511;-82
2022/10/20 01:03:44;;;;;;;12.97;11.67;;;13.40;99.90;;;;;;5078335;28;20987;-81
2022/10/20 01:06:14;;;;;;;16.43;12.40;;;13.30;25.50;;;;;;5081056;28;20565;-81
2022/10/20 01:08:42;;;;;;;12.77;11.57;;;13.40;1.00;;;;;;5078951;28;20887;-80
2022/10/20 01:11:18;;;;;;;13.50;12.20;;;13.30;1.00;;;;;;5079294;28;20477;-80
2022/10/20 01:13:57;;;;;;;14.60;13.20;;;13.40;99.90;;;;;;5081139;28;20501;-81
2022/10/20 01:16:36;;;;;;;13.90;12.70;;;13.50;99.90;;;;;;5082820;28;20590;-81
2022/10/20 01:19:25;;;;;;;13.20;11.90;;;13.50;1.00;;;;;;5082518;28;21160;-81
2022/10/20 01:22:10;;;;;;;13.60;12.30;;;13.50;1.00;;;;;;5079850;28;20505;-81
2022/10/20 01:25:06;;;;;;;13.90;12.40;;;13.50;70.00;;;;;;5082272;28;20464;-80
2022/10/20 01:27:39;;;;;;;15.60;13.17;;;13.50;29.20;;;;;;5075310;28;20436;-81
2022/10/20 01:30:11;;;;;;;14.70;12.47;;;13.50;99.90;;;;;;5084029;28;21131;-80
2022/10/20 01:33:09;;;;;;;13.67;12.27;;;13.40;1.00;;;;;;5086014;28;20464;-81
2022/10/20 01:35:49;;;;;;;19.83;13.73;;;13.20;99.90;;;;;;5079615;28;20465;-81
2022/10/20 01:38:27;;;;;;;14.03;12.83;;;13.30;99.90;;;;;;5080122;28;20461;-81
2022/10/20 01:41:01;;;;;;;15.23;13.43;;;13.20;1.00;;;;;;5079814;28;20460;-81
2022/10/20 01:43:35;;;;;;;13.07;11.77;;;13.30;99.90;;;;;;5080573;28;20531;-81
2022/10/20 01:46:05;;;;;;;17.47;12.93;;;13.20;99.90;;;;;;5083874;28;20462;-81
2022/10/20 01:48:37;;;;;;;14.63;12.90;;;13.40;99.90;;;;;;5086203;28;20447;-81
2022/10/20 01:51:06;;;;;;;12.50;11.30;;;13.30;99.90;;;;;;5076737;28;20487;-81
2022/10/20 01:53:34;;;;;;;12.50;11.40;;;13.40;99.90;;;;;;5074169;28;20485;-81
2022/10/20 01:56:03;;;;;;;13.37;11.70;;;13.40;1.00;;;;;;5077311;28;20590;-81
2022/10/20 01:59:08;;;;;;;12.83;11.63;;;13.30;99.90;;;;;;5080906;28;20453;-81
2022/10/20 02:02:03;;;;;;;13.70;12.27;;;13.30;77.10;;;;;;5079477;28;20838;-80
2022/10/20 02:04:41;;;;;;;14.40;13.00;;;13.40;99.90;;;;;;5076603;28;20563;-80
2022/10/20 02:07:17;;;;;;;15.00;12.30;;;13.40;99.90;;;;;;5077769;28;20556;-81
2022/10/20 02:09:49;;;;;;;13.90;12.57;;;13.40;99.90;;;;;;5077187;28;22155;-81
2022/10/20 02:12:22;;;;;;;14.27;12.97;;;13.40;1.00;;;;;;5077013;28;20470;-80
2022/10/20 02:14:53;;;;;;;14.07;12.60;;;13.40;99.90;;;;;;5079670;28;20496;-80
2022/10/20 02:17:21;;;;;;;14.90;12.60;;;13.40;99.90;;;;;;5084699;28;20494;-80
2022/10/20 02:19:52;;;;;;;14.73;13.27;;;13.50;99.90;;;;;;5079037;28;20579;-81
2022/10/20 02:22:21;;;;;;;13.73;12.33;;;13.40;99.90;;;;;;5082274;28;20543;-82
2022/10/20 02:24:49;;;;;;;12.50;11.50;;;13.40;99.90;;;;;;5077122;28;20466;-80
2022/10/20 02:27:22;;;;;;;14.10;12.80;;;13.40;99.90;;;;;;5079348;28;20456;-81
2022/10/20 02:29:57;;;;;;;13.70;12.50;;;13.30;99.90;;;;;;5079456;28;20471;-81
2022/10/20 02:32:25;;;;;;;15.27;13.87;;;13.30;1.00;;;;;;5084894;28;20481;-82
2022/10/20 02:34:53;;;;;;;14.40;13.00;;;13.30;99.90;;;;;;5078091;28;20588;-81
2022/10/20 02:37:21;;;;;;;14.07;12.70;;;13.40;99.90;;;;;;5083234;28;20456;-81
2022/10/20 02:39:49;;;;;;;16.00;13.00;;;13.40;99.90;;;;;;5083249;28;20492;-80
2022/10/20 02:42:17;;;;;;;13.90;12.50;;;13.40;99.90;;;;;;5089119;28;20486;-80
2022/10/20 02:44:45;;;;;;;13.83;12.53;;;13.40;99.90;;;;;;5086596;28;20547;-80
2022/10/20 02:47:15;;;;;;;16.10;13.50;;;13.40;99.90;;;;;;5076673;28;20500;-81
2022/10/20 02:49:43;;;;;;;14.60;12.73;;;13.40;99.90;;;;;;5079935;28;20467;-80
2022/10/20 02:52:11;;;;;;;14.23;12.93;;;13.30;99.90;;;;;;5083521;28;20479;-81
2022/10/20 02:54:40;;;;;;;16.93;11.17;;;13.20;99.90;;;;;;5082990;28;20451;-81
2022/10/20 02:57:08;;;;;;;13.43;12.20;;;13.10;99.90;;;;;;5086194;28;20483;-81
2022/10/20 02:59:36;;;;;;;13.30;12.13;;;13.10;99.90;;;;;;5087022;28;20485;-82
2022/10/20 03:02:04;;;;;;;14.63;12.50;;;13.10;93.20;;;;;;5083734;28;20526;-82
2022/10/20 03:04:33;;;;;;;12.93;11.70;;;13.20;99.90;;;;;;5093030;28;20869;-81
2022/10/20 03:07:02;;;;;;;13.70;12.00;;;13.10;99.90;;;;;;5084601;28;21132;-81
2022/10/20 03:09:30;;;;;;;14.63;13.13;;;13.20;99.90;;;;;;5085048;28;20485;-81
2022/10/20 03:11:58;;;;;;;15.03;13.63;;;13.30;1.00;;;;;;5084769;28;20569;-82
2022/10/20 03:14:26;;;;;;;13.20;12.10;;;13.40;99.90;;;;;;5090029;28;20491;-81
2022/10/20 03:16:54;;;;;;;14.67;13.17;;;13.40;99.90;;;;;;5084789;28;20472;-81
2022/10/20 03:19:22;;;;;;;13.73;12.40;;;13.40;1.00;;;;;;5087325;28;20464;-82
2022/10/20 03:21:51;;;;;;;13.37;12.17;;;13.40;1.00;;;;;;5085002;28;20503;-81
2022/10/20 03:24:19;;;;;;;15.40;13.77;;;13.50;1.00;;;;;;5091149;28;20597;-81
2022/10/20 03:26:47;;;;;;;16.20;14.70;;;13.50;1.00;;;;;;5085152;28;20951;-81
2022/10/20 03:29:15;;;;;;;14.70;13.30;;;13.40;1.00;;;;;;5083600;28;20453;-81
2022/10/20 03:31:43;;;;;;;13.83;12.50;;;13.40;1.00;;;;;;5081912;28;20515;-79
2022/10/20 03:34:12;;;;;;;14.37;13.00;;;13.40;1.00;;;;;;5087612;28;21397;-81
2022/10/20 03:36:40;;;;;;;14.90;13.37;;;13.40;1.00;;;;;;5079323;28;20478;-81
2022/10/20 03:39:10;;;;;;;15.50;12.53;;;13.40;1.00;;;;;;5082389;28;20461;-81
2022/10/20 03:41:38;;;;;;;15.40;14.00;;;13.50;1.00;;;;;;5086513;28;20556;-81
2022/10/20 03:44:06;;;;;;;14.27;12.97;;;13.50;1.00;;;;;;5077423;28;20473;-82
2022/10/20 03:46:34;;;;;;;15.33;14.00;;;13.50;1.00;;;;;;5086289;28;20476;-81
2022/10/20 03:49:02;;;;;;;16.47;14.80;;;13.50;1.00;;;;;;5083652;28;20457;-81
2022/10/20 03:51:30;;;;;;;15.20;13.70;;;13.60;1.00;;;;;;5084241;28;20519;-81
2022/10/20 03:53:58;;;;;;;15.60;14.07;;;13.50;1.00;;;;;;5083868;28;20453;-80
2022/10/20 03:56:28;;;;;;;14.83;13.53;;;13.60;1.00;;;;;;5081296;28;20454;-81
2022/10/20 03:58:56;;;;;;;14.27;12.97;;;13.60;1.00;;;;;;5083296;28;20501;-81
2022/10/20 04:01:29;;;;;;;17.27;13.70;;;13.60;1.00;;;;;;5084819;28;20477;-81
2022/10/20 04:04:02;;;;;;;18.00;14.60;;;13.60;1.00;;;;;;5087534;28;20455;-81
2022/10/20 04:06:32;;;;;;;15.90;14.27;;;13.60;1.00;;;;;;5088121;28;21067;-81
2022/10/20 04:09:00;;;;;;;15.63;13.80;;;13.50;1.00;;;;;;5086011;28;20499;-81
2022/10/20 04:11:30;;;;;;;14.40;13.00;;;13.50;1.00;;;;;;5084318;28;20579;-81
2022/10/20 04:13:58;;;;;;;15.30;13.80;;;13.50;1.00;;;;;;5083222;28;20473;-80
2022/10/20 04:16:26;;;;;;;18.83;14.20;;;13.50;1.00;;;;;;5084308;28;20452;-78
2022/10/20 04:18:55;;;;;;;16.03;14.60;;;13.50;1.00;;;;;;5078025;28;20469;-80
2022/10/20 04:21:24;;;;;;;16.00;13.73;;;13.50;1.00;;;;;;5078141;28;20540;-80
2022/10/20 04:23:52;;;;;;;16.27;13.97;;;13.60;1.00;;;;;;5082878;28;20551;-79
2022/10/20 04:26:20;;;;;;;15.50;13.90;;;13.60;1.00;;;;;;5083837;28;20525;-80
2022/10/20 04:28:50;;;;;;;14.60;13.20;;;13.50;1.00;;;;;;5082866;28;20453;-80
2022/10/20 04:31:18;;;;;;;16.83;13.27;;;13.60;1.00;;;;;;5081315;28;20483;-80
2022/10/20 04:33:46;;;;;;;15.43;13.90;;;13.60;1.00;;;;;;5085147;28;20477;-81
2022/10/20 04:36:14;;;;;;;14.83;13.47;;;13.60;1.00;;;;;;5081822;28;20526;-80
2022/10/20 04:38:42;;;;;;;17.40;14.67;;;13.50;1.00;;;;;;5085233;28;20496;-82
2022/10/20 04:41:10;;;;;;;15.27;13.87;;;13.50;1.00;;;;;;5088459;28;20503;-83
2022/10/20 04:43:38;;;;;;;17.43;15.53;;;13.60;1.00;;;;;;5083190;28;20458;-81
2022/10/20 04:46:08;;;;;;;16.00;14.40;;;13.60;1.00;;;;;;5078977;28;20467;-83
2022/10/20 04:48:37;;;;;;;16.53;14.87;;;13.70;99.90;;;;;;5082488;28;20451;-81
2022/10/20 04:51:07;;;;;;;16.70;14.93;;;13.70;99.90;;;;;;5080528;28;20515;-82
2022/10/20 04:53:35;;;;;;;15.30;13.90;;;13.60;1.00;;;;;;5086015;28;21003;-82
2022/10/20 04:56:05;;;;;;;16.63;14.97;;;13.70;1.00;;;;;;5083027;28;20543;-82
2022/10/20 04:58:34;;;;;;;17.60;14.80;;;13.70;1.00;;;;;;5080110;28;20491;-81
2022/10/20 05:01:12;;;;;;;16.10;14.63;;;13.60;1.00;;;;;;5084108;28;20588;-81
2022/10/20 05:03:40;;;;;;;15.70;14.20;;;13.60;1.00;;;;;;5084684;28;20496;-80
2022/10/20 05:06:09;;;;;;;16.77;15.07;;;13.60;1.00;;;;;;5084511;28;20555;-81
2022/10/20 05:08:38;;;;;;;18.00;16.27;;;13.60;1.00;;;;;;5081427;28;20543;-83
2022/10/20 05:11:07;;;;;;;17.20;15.50;;;13.60;1.00;;;;;;5084223;28;20511;-80
2022/10/20 05:13:35;;;;;;;17.77;15.97;;;13.60;1.00;;;;;;5081665;28;21002;-81
2022/10/20 05:16:04;;;;;;;16.73;15.23;;;13.70;1.00;;;;;;5083778;28;20490;-81
2022/10/20 05:18:34;;;;;;;17.50;15.70;;;13.60;1.00;;;;;;5082573;28;20452;-81
2022/10/20 05:21:06;;;;;;;17.07;15.43;;;13.60;1.00;;;;;;5090614;28;20471;-83
2022/10/20 05:23:37;;;;;;;16.73;14.90;;;13.50;1.00;;;;;;5084747;28;20487;-82
2022/10/20 05:26:07;;;;;;;16.50;14.73;;;13.50;1.00;;;;;;5082601;28;20495;-80
2022/10/20 05:28:35;;;;;;;16.93;15.13;;;13.50;1.00;;;;;;5088023;28;20468;-82
2022/10/20 05:31:04;;;;;;;16.43;14.87;;;13.60;1.00;;;;;;5083279;28;20511;-82
2022/10/20 05:33:34;;;;;;;16.23;14.83;;;13.70;1.00;;;;;;5087254;28;20632;-83
2022/10/20 05:36:08;;;;;;;17.80;16.03;;;13.60;1.00;;;;;;5079666;28;20453;-82
2022/10/20 05:38:36;;;;;;;16.30;14.80;;;13.60;1.00;;;;;;5086412;28;20449;-82
2022/10/20 05:41:09;;;;;;;16.70;15.10;;;13.60;99.90;;;;;;5084974;28;20488;-82
2022/10/20 05:43:37;;;;;;;16.70;15.10;;;13.50;1.00;;;;;;5078298;28;20456;-83
2022/10/20 05:46:06;;;;;;;15.77;14.13;;;13.50;1.00;;;;;;5085883;28;20484;-82
2022/10/20 05:48:36;;;;;;;17.83;16.10;;;13.50;1.00;;;;;;5085470;28;20496;-83
2022/10/20 05:51:11;;;;;;;19.10;17.20;;;13.50;1.00;;;;;;5079586;28;20477;-81
2022/10/20 05:53:42;;;;;;;16.17;14.33;;;13.50;1.00;;;;;;5091072;28;20460;-82
2022/10/20 05:56:12;;;;;;;17.10;15.40;;;13.50;1.00;;;;;;5088491;28;20470;-81
2022/10/20 05:58:41;;;;;;;15.50;14.10;;;13.60;1.00;;;;;;5087650;28;20441;-82
2022/10/20 06:01:15;;;;;;;18.07;16.10;;;13.60;1.00;;;;;;5088445;28;20485;-82
2022/10/20 06:03:47;;;;;;;16.80;15.30;;;13.60;1.00;;;;;;5090711;28;20446;-82
2022/10/20 06:06:16;;;;;;;16.93;15.33;;;13.60;1.00;;;;;;5084983;28;20453;-80
2022/10/20 06:08:45;;;;;;;17.97;16.30;;;13.60;1.00;;;;;;5087610;28;20460;-81
2022/10/20 06:11:15;;;;;;;21.70;16.43;;;13.50;1.00;;;;;;5080073;28;21017;-81
2022/10/20 06:13:43;;;;;;;17.33;15.67;;;13.60;1.00;;;;;;5079741;28;20979;-81
2022/10/20 06:16:18;;;;;;;18.30;16.63;;;13.60;1.00;;;;;;5085323;28;20449;-80
2022/10/20 06:18:48;;;;;;;17.77;15.23;;;13.70;1.00;;;;;;5080783;28;20484;-81
2022/10/20 06:21:18;;;;;;;17.30;15.60;;;13.60;1.00;;;;;;5082259;28;20500;-81
2022/10/20 06:23:46;;;;;;;16.83;15.23;;;13.60;1.00;;;;;;5082010;28;20566;-81
2022/10/20 06:26:17;;;;;;;16.97;15.30;;;13.70;1.00;;;;;;5083672;28;20543;-80
2022/10/20 06:28:46;;;;;;;16.70;15.10;;;13.70;1.00;;;;;;5098222;28;20508;-82
2022/10/20 06:31:16;;;;;;;17.40;15.60;;;13.70;1.00;;;;;;5086965;28;20476;-80
2022/10/20 06:33:45;;;;;;;17.70;16.00;;;13.60;1.00;;;;;;5090818;28;20466;-81
2022/10/20 06:36:15;;;;;;;18.27;16.33;;;13.60;1.00;;;;;;5085020;28;20867;-81
2022/10/20 06:38:43;;;;;;;20.60;14.97;;;13.60;1.00;;;;;;5091219;28;20547;-81
2022/10/20 06:41:13;;;;;;;18.57;16.90;;;13.60;1.00;;;;;;5086421;28;20472;-81
2022/10/20 06:43:41;;;;;;;17.70;16.00;;;13.60;1.00;;;;;;5086923;28;20527;-82
2022/10/20 06:46:11;;;;;;;16.30;14.90;;;13.60;1.00;;;;;;5084706;28;20967;-81
2022/10/20 06:48:40;;;;;;;17.97;16.23;;;13.60;1.00;;;;;;5089649;28;20460;-81
2022/10/20 06:51:10;;;;;;;18.10;14.77;;;13.60;1.00;;;;;;5087134;28;20546;-81
2022/10/20 06:53:41;;;;;;;17.93;16.17;;;13.60;1.00;;;;;;5082903;28;20468;-80
2022/10/20 06:56:14;;;;;;;17.07;15.33;;;13.60;1.00;;;;;;5078888;28;20454;-81
2022/10/20 06:58:45;;;;;;;17.50;15.80;;;13.70;99.90;;;;;;5089617;28;20543;-81
2022/10/20 07:01:15;;;;;;;18.60;16.77;;;13.80;99.90;;;;;;5093845;28;20551;-81
2022/10/20 07:03:44;;;;;;;17.60;15.80;;;13.70;99.90;;;;;;5091167;28;20435;-81
2022/10/20 07:06:15;;;;;;;18.23;16.40;;;13.60;1.00;;;;;;5089460;28;20811;-81
2022/10/20 07:08:44;;;;;;;16.57;14.90;;;13.70;1.00;;;;;;5088711;28;20474;-81
2022/10/20 07:11:15;;;;;;;18.67;16.70;;;13.70;1.00;;;;;;5085327;28;20469;-81
2022/10/20 07:13:43;;;;;;;16.63;15.13;;;13.90;1.00;;;;;;5079112;28;20473;-81
2022/10/20 07:16:13;;;;;;;16.87;15.30;;;14.00;99.90;;;;;;5091182;28;20440;-81
2022/10/20 07:18:41;;;;;;;18.67;16.80;;;14.00;99.90;;;;;;5084384;28;20445;-81
2022/10/20 07:21:13;;;;;;;18.13;16.53;;;14.00;1.00;;;;;;5089986;28;20469;-82
2022/10/20 07:23:41;;;;;;;16.70;15.10;;;14.10;99.90;;;;;;5089249;28;20441;-81
2022/10/20 07:26:12;;;;;;;17.97;16.37;;;14.20;99.90;;;;;;5086996;28;20463;-77
2022/10/20 07:28:42;;;;;;;17.70;16.00;;;14.30;99.90;;;;;;5082748;28;20966;-76
2022/10/20 07:31:13;;;;;;;18.93;17.40;;;14.40;99.90;;;;;;5087910;28;20465;-76
2022/10/20 07:33:41;;;;;;;18.87;17.13;;;14.40;99.90;;;;;;5084792;28;20547;-77
2022/10/20 07:36:15;;;;;;;18.33;16.53;;;14.60;99.90;;;;;;5083390;28;20541;-77
2022/10/20 07:38:43;;;;;;;18.47;16.77;;;14.70;1.00;;;;;;5078463;28;20469;-78
2022/10/20 07:41:13;;;;;;;17.53;15.93;;;14.90;99.90;;;;;;5086303;28;20469;-77
2022/10/20 07:43:42;;;;;;;18.47;16.93;;;15.00;1.00;;;;;;5082427;28;20492;-78
2022/10/20 07:46:11;;;;;;;16.73;15.13;;;15.10;1.00;;;;;;5081297;28;20479;-77
2022/10/20 07:48:40;;;;;;;17.83;16.30;;;15.30;1.00;;;;;;5079352;28;20492;-77
2022/10/20 07:51:24;;;;;;;14.60;13.60;;;15.50;38.90;;;;;;5084725;28;20557;-78
2022/10/20 07:53:54;;;;;;;16.47;15.10;;;15.40;1.00;;;;;;5076997;28;20489;-78
2022/10/20 07:56:30;;;;;;;16.40;15.10;;;15.60;99.90;;;;;;5078869;28;20467;-77
2022/10/20 07:58:59;;;;;;;16.50;15.20;;;15.80;99.90;;;;;;5078547;28;20553;-78
2022/10/20 08:01:27;;;;;;;15.17;14.00;;;15.70;99.90;;;;;;5081764;28;20483;-77
2022/10/20 08:03:55;;;;;;;17.20;15.80;;;15.60;93.00;;;;;;5077620;28;20892;-78
2022/10/20 08:06:23;;;;;;;16.87;15.57;;;15.60;99.90;;;;;;5082852;28;20550;-78
2022/10/20 08:08:51;;;;;;;16.50;15.17;;;15.50;1.00;;;;;;5081137;28;20458;-79
2022/10/20 08:11:20;;;;;;;17.40;16.10;;;15.70;1.00;;;;;;5086410;28;20489;-79
2022/10/20 08:13:49;;;;;;;17.17;15.77;;;16.20;99.90;;;;;;5085949;28;20482;-77
2022/10/20 08:16:18;;;;;;;17.50;16.20;;;16.60;99.90;;;;;;5080879;28;20514;-78
2022/10/20 08:18:57;;;;;;;18.30;16.80;;;17.00;1.00;;;;;;5079443;28;20471;-78
2022/10/20 08:21:32;;;;;;;16.23;15.13;;;17.50;99.90;;;;;;5084927;28;20815;-78
2022/10/20 08:24:01;;;;;;;15.37;14.20;;;17.50;1.00;;;;;;5077890;28;20532;-79
2022/10/20 08:26:29;;;;;;;14.90;13.80;;;17.90;1.00;;;;;;5075315;28;20509;-80
2022/10/20 08:28:59;;;;;;;15.53;14.33;;;18.10;1.00;;;;;;5077048;28;20879;-79
2022/10/20 08:31:27;;;;;;;14.80;13.80;;;18.40;99.90;;;;;;5075518;28;20478;-78
2022/10/20 08:33:55;;;;;;;15.30;14.20;;;18.40;99.90;;;;;;5087110;28;20466;-77
2022/10/20 08:36:23;;;;;;;13.50;12.70;;;18.40;99.90;;;;;;5077288;28;20465;-78
2022/10/20 08:38:53;;;;;;;15.00;14.00;;;18.50;99.90;;;;;;5085163;28;20453;-79
2022/10/20 08:41:24;;;;;;;15.93;14.73;;;18.80;99.90;;;;;;5076108;28;20549;-78
2022/10/20 08:43:54;;;;;;;15.40;14.30;;;19.20;25.30;;;;;;5077502;28;20493;-78
2022/10/20 08:46:30;;;;;;;14.20;12.83;;;19.10;8.90;;;;;;5077849;28;20561;-79
2022/10/20 08:48:59;;;;;;;15.10;13.90;;;18.70;24.40;;;;;;5086169;28;20464;-79
2022/10/20 08:51:31;;;;;;;14.60;13.40;;;18.40;99.90;;;;;;5082551;28;21066;-78
2022/10/20 08:54:01;;;;;;;12.93;12.13;;;18.10;99.90;;;;;;5071759;28;20536;-78
2022/10/20 08:56:31;;;;;;;14.27;13.27;;;18.00;99.90;;;;;;5076443;28;20483;-78
2022/10/20 08:58:59;;;;;;;14.53;13.43;;;18.50;99.90;;;;;;5082022;28;20443;-83
2022/10/20 09:01:33;;;;;;;16.40;15.27;;;19.00;80.10;;;;;;5086258;28;20554;-82
2022/10/20 09:04:06;;;;;;;13.90;13.10;;;19.40;25.90;;;;;;5087525;28;20446;-82
2022/10/20 09:06:35;;;;;;;13.80;12.90;;;19.10;1.00;;;;;;5080507;28;21132;-82
2022/10/20 09:09:04;;;;;;;13.17;12.27;;;18.50;1.00;;;;;;5075361;28;20512;-82
2022/10/20 09:11:39;;;;;;;13.30;12.50;;;18.20;99.90;;;;;;5077909;28;20556;-81
2022/10/20 09:14:08;;;;;;;13.03;11.90;;;17.80;99.90;;;;;;5087540;28;21017;-82
2022/10/20 09:16:41;;;;;;;12.93;12.03;;;17.60;99.90;;;;;;5087979;28;20489;-81
2022/10/20 09:19:27;;;;;;;13.60;12.60;;;17.40;1.00;;;;;;5074030;28;20456;-82
2022/10/20 09:21:58;;;;;;;15.97;14.73;;;17.60;21.70;;;;;;5080332;28;20463;-80
2022/10/20 09:24:29;;;;;;;14.17;13.10;;;17.70;1.00;;;;;;5079116;28;20998;-82
2022/10/20 09:27:15;;;;;;;14.53;13.50;;;17.80;1.00;;;;;;5088708;28;20453;-81
2022/10/20 09:29:44;;;;;;;13.27;12.40;;;17.70;1.00;;;;;;5080107;28;20444;-81
2022/10/20 09:32:21;;;;;;;14.20;13.20;;;17.40;1.00;;;;;;5082084;28;20509;-82
2022/10/20 09:35:19;;;;;;;13.30;12.40;;;17.10;99.90;;;;;;5091096;28;20583;-81
2022/10/20 09:37:57;;;;;;;12.73;11.87;;;17.00;99.90;;;;;;5083658;28;20528;-82
2022/10/20 09:40:26;;;;;;;13.50;12.30;;;16.90;1.00;;;;;;5084373;28;20856;-83
2022/10/20 09:42:57;;;;;;;18.03;13.40;;;16.80;99.90;;;;;;5084730;28;20865;-81
2022/10/20 09:45:28;;;;;;;14.40;13.30;;;16.70;99.90;;;;;;5090403;28;20887;-81
2022/10/20 09:48:03;;;;;;;13.07;12.20;;;16.70;1.00;;;;;;5090729;28;20954;-82
2022/10/20 09:50:35;;;;;;;13.60;12.60;;;16.60;1.00;;;;;;5090589;28;20476;-82
2022/10/20 09:53:06;;;;;;;14.30;13.20;;;16.60;99.90;;;;;;5088550;28;20460;-81
2022/10/20 09:55:40;;;;;;;13.77;12.73;;;16.60;99.90;;;;;;5087861;28;21210;-81
2022/10/20 09:58:26;;;;;;;13.27;12.33;;;16.60;1.00;;;;;;5087611;28;20460;-82
2022/10/20 10:01:01;;;;;;;14.20;13.30;;;16.60;99.90;;;;;;5083501;28;20516;-83
2022/10/20 10:03:39;;;;;;;13.83;12.97;;;16.70;99.90;;;;;;5085078;28;20491;-81
2022/10/20 10:06:21;;;;;;;14.60;13.70;;;16.90;99.90;;;;;;5092769;28;20528;-82
2022/10/20 10:08:50;;;;;;;13.27;12.50;;;17.10;99.90;;;;;;5094778;28;20775;-81
2022/10/20 10:11:20;;;;;;;13.97;13.13;;;17.20;99.90;;;;;;5081215;28;20476;-82
2022/10/20 10:13:50;;;;;;;12.90;11.97;;;17.10;1.00;;;;;;5095415;28;20527;-81
2022/10/20 10:16:21;;;;;;;13.90;12.87;;;17.20;99.90;;;;;;5092548;28;20543;-82
2022/10/20 10:19:00;;;;;;;13.30;12.43;;;17.20;99.90;;;;;;5088096;28;20458;-82
2022/10/20 10:21:30;;;;;;;12.70;12.00;;;17.30;99.90;;;;;;5093453;28;20525;-82
2022/10/20 10:24:00;;;;;;;12.83;12.03;;;17.40;99.90;;;;;;5087072;28;20479;-82
2022/10/20 10:26:53;;;;;;;12.40;11.70;;;17.70;1.00;;;;;;5087412;28;20476;-82
2022/10/20 10:29:25;;;;;;;14.73;13.53;;;17.80;1.00;;;;;;5091771;28;20465;-81
2022/10/20 10:32:00;;;;;;;13.90;12.90;;;18.00;99.90;;;;;;5082523;28;20456;-82
2022/10/20 10:34:58;;;;;;;12.70;12.10;;;18.60;1.00;;;;;;5092560;28;20499;-82
2022/10/20 10:37:28;;;;;;;12.17;11.33;;;18.40;1.00;;;;;;5093529;28;20547;-82
2022/10/20 10:40:03;;;;;;;12.23;11.43;;;18.10;1.00;;;;;;5082458;28;20481;-81
2022/10/20 10:42:43;;;;;;;11.07;10.47;;;17.80;1.00;;;;;;5093726;28;20476;-82
2022/10/20 10:45:18;;;;;;;11.40;10.80;;;17.60;64.40;;;;;;5079282;28;20448;-81
2022/10/20 10:48:18;;;;;;;10.90;10.20;;;17.50;99.90;;;;;;5093780;28;20895;-80
2022/10/20 10:50:53;;;;;;;10.60;9.90;;;17.40;99.90;;;;;;5092912;28;20468;-80
2022/10/20 10:53:33;;;;;;;11.90;11.30;;;17.30;1.00;;;;;;5090438;28;20430;-82
2022/10/20 10:56:09;;;;;;;12.20;11.03;;;17.30;1.00;;;;;;5086868;28;20502;-81
2022/10/20 10:58:45;;;;;;;10.97;10.47;;;17.40;1.00;;;;;;5079109;28;20465;-83
2022/10/20 11:01:49;;;;;;;12.20;11.17;;;17.40;6.60;;;;;;5092645;28;20511;-81
2022/10/20 11:04:34;;;;;;;12.10;11.40;;;17.50;99.90;;;;;;5080400;28;20490;-81
2022/10/20 11:07:12;;;;;;;12.43;11.07;;;17.40;99.90;;;;;;5080464;28;20544;-82
2022/10/20 11:09:52;;;;;;;11.77;10.90;;;17.30;99.90;;;;;;5088244;28;21198;-83
2022/10/20 11:12:37;;;;;;;11.30;10.60;;;17.40;99.90;;;;;;5094876;28;20451;-82
2022/10/20 11:15:19;;;;;;;11.30;10.33;;;17.40;99.90;;;;;;5086077;28;20488;-82
2022/10/20 11:17:58;;;;;;;10.90;10.37;;;17.50;45.50;;;;;;5091706;28;20725;-83
2022/10/20 11:20:32;;;;;;;11.57;10.63;;;17.40;99.90;;;;;;5084179;28;20473;-82
2022/10/20 11:23:45;;;;;;;11.33;10.63;;;17.40;1.00;;;;;;5078665;28;20544;-80
2022/10/20 11:26:22;;;;;;;11.60;10.87;;;17.40;1.00;;;;;;5071885;28;20460;-81
2022/10/20 11:28:57;;;;;;;11.53;10.83;;;17.40;1.00;;;;;;5087667;28;20502;-79
2022/10/20 11:31:31;;;;;;;11.23;10.30;;;17.40;99.90;;;;;;5080449;28;20472;-81
2022/10/20 11:34:05;;;;;;;10.40;9.80;;;17.40;99.90;;;;;;5093205;28;20677;-82
2022/10/20 11:36:38;;;;;;;11.13;10.53;;;17.40;99.90;;;;;;5091445;28;20480;-82
2022/10/20 11:39:15;;;;;;;10.90;10.30;;;17.50;1.00;;;;;;5092256;28;20541;-81
2022/10/20 11:41:48;;;;;;;10.93;10.40;;;17.50;99.90;;;;;;5085622;28;20478;-82
2022/10/20 11:44:21;;;;;;;11.03;10.40;;;17.40;48.10;;;;;;5082942;28;20442;-82
2022/10/20 11:46:52;;;;;;;11.23;10.63;;;17.50;99.90;;;;;;5079554;28;20452;-82
2022/10/20 11:49:21;;;;;;;10.97;10.47;;;17.50;99.90;;;;;;5092870;28;20943;-82
2022/10/20 11:52:11;;;;;;;10.90;10.13;;;17.50;50.40;;;;;;5078727;28;20539;-81
2022/10/20 11:55:04;;;;;;;10.90;10.30;;;17.40;1.00;;;;;;5093056;28;21088;-81
2022/10/20 11:57:44;;;;;;;11.70;10.80;;;17.30;99.90;;;;;;5087750;28;20479;-82
2022/10/20 12:00:23;;;;;;;11.27;10.77;;;17.30;1.00;;;;;;5080016;28;21060;-82
2022/10/20 12:03:27;;;;;;;10.83;10.30;;;17.40;99.90;;;;;;5085180;28;20466;-82
2022/10/20 12:06:26;;;;;;;11.40;10.80;;;17.40;1.00;;;;;;5080748;28;20455;-81
2022/10/20 12:09:21;;;;;;;10.73;10.20;;;17.50;1.00;;;;;;5084645;28;21027;-82
2022/10/20 12:11:56;;;;;;;10.87;10.23;;;17.60;99.90;;;;;;5091141;28;20483;-81
2022/10/20 12:14:30;;;;;;;10.50;10.00;;;17.60;1.00;;;;;;5077145;28;20543;-81
2022/10/20 12:17:17;;;;;;;10.90;10.30;;;17.50;99.90;;;;;;5082164;28;20562;-81
2022/10/20 12:19:48;;;;;;;11.27;10.67;;;17.50;1.00;;;;;;5090816;28;20551;-82
2022/10/20 12:22:41;;;;;;;11.70;10.90;;;17.60;1.00;;;;;;5089544;28;22131;-82
2022/10/20 12:25:35;;;;;;;11.40;10.90;;;17.50;1.00;;;;;;5092186;28;20497;-81
2022/10/20 12:28:34;;;;;;;11.43;10.90;;;17.50;99.90;;;;;;5071985;28;21074;-81
2022/10/20 12:31:03;;;;;;;11.77;10.50;;;17.50;1.00;;;;;;5076158;28;20516;-81
2022/10/20 12:33:38;;;;;;;10.90;10.20;;;17.40;1.00;;;;;;5088791;28;20464;-81
2022/10/20 12:36:28;;;;;;;11.20;10.57;;;17.50;1.00;;;;;;5082232;28;20518;-81
2022/10/20 12:39:20;;;;;;;11.30;10.60;;;17.50;1.00;;;;;;5092254;28;20459;-82
2022/10/20 12:41:59;;;;;;;11.90;11.00;;;17.50;1.00;;;;;;5075125;28;20825;-82
2022/10/20 12:44:31;;;;;;;11.40;10.60;;;17.50;1.00;;;;;;5080570;28;20448;-81
2022/10/20 12:47:06;;;;;;;10.20;9.60;;;17.50;1.00;;;;;;5090491;28;20452;-81
2022/10/20 12:49:37;;;;;;;10.60;9.93;;;17.50;1.00;;;;;;5087304;28;20827;-83
2022/10/20 12:52:15;;;;;;;11.20;10.70;;;17.50;99.90;;;;;;5090819;28;20471;-81
2022/10/20 12:54:44;;;;;;;10.80;10.10;;;17.50;31.70;;;;;;5085999;28;20449;-82
2022/10/20 12:57:34;;;;;;;11.13;10.53;;;17.50;66.80;;;;;;5091886;28;20477;-81
2022/10/20 13:00:06;;;;;;;15.83;11.47;;;17.50;99.90;;;;;;5086323;28;20473;-82
2022/10/20 13:02:48;;;;;;;11.50;10.90;;;17.40;99.90;;;;;;5086203;28;21029;-80